sensor_id;sensor_type;location;lat;lon;timestamp;P1;P2;P0
65383;PMS5003;51986;52.788;41.368;2023-01-28T00:01:18;15.00;12.00;5.00
65383;PMS5003;51986;52.788;41.368;2023-01-28T00:03:48;15.00;14.00;5.00
65383;PMS5003;51986;52.788;41.368;2023-01-28T00:06:16;13.00;12.00;3.00
65383;PMS5003;51986;52.788;41.368;2023-01-28T00:08:43;13.50;12.00;5.00
65383;PMS5003;51986;52.788;41.368;2023-01-28T00:11:11;14.00;13.00;5.00
65383;PMS5003;51986;52.788;41.368;2023-01-28T00:13:39;13.00;11.50;4.25
65383;PMS5003;51986;52.788;41.368;2023-01-28T00:16:06;13.75;12.25;5.75
65383;PMS5003;51986;52.788;41.368;2023-01-28T00:18:34;14.00;12.25;5.00
65383;PMS5003;51986;52.788;41.368;2023-01-28T00:21:05;16.00;14.00;6.00
65383;PMS5003;51986;52.788;41.368;2023-01-28T00:23:34;16.00;13.00;6.75
65383;PMS5003;51986;52.788;41.368;2023-01-28T00:26:03;18.00;13.00;5.00
65383;PMS5003;51986;52.788;41.368;2023-01-28T00:28:42;17.00;15.00;6.00
65383;PMS5003;51986;52.788;41.368;2023-01-28T00:31:17;15.00;13.75;4.75
65383;PMS5003;51986;52.788;41.368;2023-01-28T00:33:49;12.75;12.00;5.00
65383;PMS5003;51986;52.788;41.368;2023-01-28T00:36:17;18.25;15.50;6.75
65383;PMS5003;51986;52.788;41.368;2023-01-28T00:39:05;20.75;16.75;8.50
65383;PMS5003;51986;52.788;41.368;2023-01-28T00:41:33;22.00;18.50;10.00
65383;PMS5003;51986;52.788;41.368;2023-01-28T00:43:59;23.50;19.00;12.00
65383;PMS5003;51986;52.788;41.368;2023-01-28T00:46:27;23.00;19.00;12.00
65383;PMS5003;51986;52.788;41.368;2023-01-28T00:48:54;22.25;19.00;11.00
65383;PMS5003;51986;52.788;41.368;2023-01-28T00:51:22;21.00;19.00;11.00
65383;PMS5003;51986;52.788;41.368;2023-01-28T00:53:49;20.50;18.00;11.00
65383;PMS5003;51986;52.788;41.368;2023-01-28T00:56:16;19.75;17.00;10.00
65383;PMS5003;51986;52.788;41.368;2023-01-28T00:58:44;18.25;16.00;10.00
65383;PMS5003;51986;52.788;41.368;2023-01-28T01:01:12;18.75;13.00;9.00
65383;PMS5003;51986;52.788;41.368;2023-01-28T01:03:44;17.00;12.00;7.00
65383;PMS5003;51986;52.788;41.368;2023-01-28T01:06:13;17.25;13.00;5.00
65383;PMS5003;51986;52.788;41.368;2023-01-28T01:08:41;18.75;15.75;6.00
65383;PMS5003;51986;52.788;41.368;2023-01-28T01:11:09;16.25;13.50;5.50
65383;PMS5003;51986;52.788;41.368;2023-01-28T01:13:37;15.75;13.75;5.50
65383;PMS5003;51986;52.788;41.368;2023-01-28T01:16:05;16.00;12.75;5.00
65383;PMS5003;51986;52.788;41.368;2023-01-28T01:18:35;15.00;13.00;5.00
65383;PMS5003;51986;52.788;41.368;2023-01-28T01:21:06;14.50;12.75;5.00
65383;PMS5003;51986;52.788;41.368;2023-01-28T01:23:37;15.00;12.00;5.00
65383;PMS5003;51986;52.788;41.368;2023-01-28T01:26:05;15.50;13.25;5.00
65383;PMS5003;51986;52.788;41.368;2023-01-28T01:28:33;14.00;13.00;5.00
65383;PMS5003;51986;52.788;41.368;2023-01-28T01:31:04;15.00;12.00;5.00
65383;PMS5003;51986;52.788;41.368;2023-01-28T01:33:33;14.00;11.25;4.25
65383;PMS5003;51986;52.788;41.368;2023-01-28T01:36:01;15.00;13.25;5.00
65383;PMS5003;51986;52.788;41.368;2023-01-28T01:38:28;17.00;13.50;5.00
65383;PMS5003;51986;52.788;41.368;2023-01-28T01:40:59;17.00;14.00;6.25
65383;PMS5003;51986;52.788;41.368;2023-01-28T01:43:46;16.50;15.00;8.00
65383;PMS5003;51986;52.788;41.368;2023-01-28T01:46:20;19.50;17.25;9.00
65383;PMS5003;51986;52.788;41.368;2023-01-28T01:51:47;27.00;20.00;12.00
65383;PMS5003;51986;52.788;41.368;2023-01-28T01:54:36;22.00;17.50;10.00
65383;PMS5003;51986;52.788;41.368;2023-01-28T01:57:07;19.50;15.75;8.00
65383;PMS5003;51986;52.788;41.368;2023-01-28T01:59:39;18.25;16.00;8.00
65383;PMS5003;51986;52.788;41.368;2023-01-28T02:02:09;14.50;13.00;7.00
65383;PMS5003;51986;52.788;41.368;2023-01-28T02:04:41;18.75;16.00;8.00
65383;PMS5003;51986;52.788;41.368;2023-01-28T02:07:13;17.00;15.00;5.25
65383;PMS5003;51986;52.788;41.368;2023-01-28T02:09:42;18.00;15.00;7.00
65383;PMS5003;51986;52.788;41.368;2023-01-28T02:12:14;17.00;13.00;5.00
65383;PMS5003;51986;52.788;41.368;2023-01-28T02:14:51;15.00;12.25;3.25
65383;PMS5003;51986;52.788;41.368;2023-01-28T02:17:24;15.00;13.00;3.00
65383;PMS5003;51986;52.788;41.368;2023-01-28T02:19:53;13.00;11.75;3.00
65383;PMS5003;51986;52.788;41.368;2023-01-28T02:22:29;13.00;12.00;3.00
65383;PMS5003;51986;52.788;41.368;2023-01-28T02:28:22;10.75;8.00;3.00
65383;PMS5003;51986;52.788;41.368;2023-01-28T02:31:10;12.50;9.50;3.50
65383;PMS5003;51986;52.788;41.368;2023-01-28T02:38:49;12.00;10.00;4.00
65383;PMS5003;51986;52.788;41.368;2023-01-28T02:41:28;12.75;10.50;3.00
65383;PMS5003;51986;52.788;41.368;2023-01-28T02:44:00;13.00;11.25;3.00
65383;PMS5003;51986;52.788;41.368;2023-01-28T02:48:55;12.75;10.00;3.00
65383;PMS5003;51986;52.788;41.368;2023-01-28T02:51:28;15.00;12.25;5.00
65383;PMS5003;51986;52.788;41.368;2023-01-28T02:54:11;18.00;15.00;5.00
65383;PMS5003;51986;52.788;41.368;2023-01-28T03:05:38;18.75;15.50;5.00
65383;PMS5003;51986;52.788;41.368;2023-01-28T03:08:10;19.75;17.50;8.00
65383;PMS5003;51986;52.788;41.368;2023-01-28T03:10:38;18.00;17.00;6.75
65383;PMS5003;51986;52.788;41.368;2023-01-28T03:13:05;20.75;18.00;8.00
65383;PMS5003;51986;52.788;41.368;2023-01-28T03:15:42;22.50;18.00;8.50
65383;PMS5003;51986;52.788;41.368;2023-01-28T03:18:17;21.50;19.00;11.50
65383;PMS5003;51986;52.788;41.368;2023-01-28T03:20:53;18.25;16.75;10.00
65383;PMS5003;51986;52.788;41.368;2023-01-28T03:23:30;15.00;12.25;5.75
65383;PMS5003;51986;52.788;41.368;2023-01-28T03:26:04;15.00;11.00;4.00
65383;PMS5003;51986;52.788;41.368;2023-01-28T03:28:34;13.00;11.00;4.00
65383;PMS5003;51986;52.788;41.368;2023-01-28T03:31:08;14.25;10.75;4.00
65383;PMS5003;51986;52.788;41.368;2023-01-28T03:33:48;15.00;12.00;4.75
65383;PMS5003;51986;52.788;41.368;2023-01-28T03:36:18;12.75;10.00;3.00
65383;PMS5003;51986;52.788;41.368;2023-01-28T03:38:46;10.00;9.25;3.00
65383;PMS5003;51986;52.788;41.368;2023-01-28T03:41:21;13.50;11.75;5.00
65383;PMS5003;51986;52.788;41.368;2023-01-28T03:43:51;12.00;10.00;3.00
65383;PMS5003;51986;52.788;41.368;2023-01-28T03:46:18;12.00;9.50;3.00
65383;PMS5003;51986;52.788;41.368;2023-01-28T03:48:46;12.75;10.25;3.00
65383;PMS5003;51986;52.788;41.368;2023-01-28T03:51:14;17.00;16.00;6.25
65383;PMS5003;51986;52.788;41.368;2023-01-28T03:53:41;14.25;12.25;3.00
65383;PMS5003;51986;52.788;41.368;2023-01-28T03:56:09;12.75;10.00;2.25
65383;PMS5003;51986;52.788;41.368;2023-01-28T03:58:38;12.00;9.75;2.50
65383;PMS5003;51986;52.788;41.368;2023-01-28T04:01:05;11.00;8.00;3.00
65383;PMS5003;51986;52.788;41.368;2023-01-28T04:03:32;10.00;6.75;2.75
65383;PMS5003;51986;52.788;41.368;2023-01-28T04:06:07;12.00;8.00;3.75
65383;PMS5003;51986;52.788;41.368;2023-01-28T04:08:53;10.50;7.00;4.00
65383;PMS5003;51986;52.788;41.368;2023-01-28T04:11:59;12.25;10.00;4.25
65383;PMS5003;51986;52.788;41.368;2023-01-28T04:14:31;13.00;11.00;3.00
65383;PMS5003;51986;52.788;41.368;2023-01-28T04:17:05;11.25;9.50;3.00
65383;PMS5003;51986;52.788;41.368;2023-01-28T04:19:35;14.00;12.00;5.00
65383;PMS5003;51986;52.788;41.368;2023-01-28T04:22:07;12.25;11.00;4.25
65383;PMS5003;51986;52.788;41.368;2023-01-28T04:24:38;12.00;12.00;3.00
65383;PMS5003;51986;52.788;41.368;2023-01-28T04:27:05;11.00;10.50;3.75
65383;PMS5003;51986;52.788;41.368;2023-01-28T04:29:32;8.00;6.50;3.00
65383;PMS5003;51986;52.788;41.368;2023-01-28T04:32:17;7.25;5.25;2.50
65383;PMS5003;51986;52.788;41.368;2023-01-28T04:35:02;7.00;5.00;2.25
65383;PMS5003;51986;52.788;41.368;2023-01-28T04:37:55;6.50;5.00;1.00
65383;PMS5003;51986;52.788;41.368;2023-01-28T04:40:30;10.00;6.00;3.00
65383;PMS5003;51986;52.788;41.368;2023-01-28T04:43:02;8.25;5.00;1.75
65383;PMS5003;51986;52.788;41.368;2023-01-28T04:45:50;8.50;5.00;1.75
65383;PMS5003;51986;52.788;41.368;2023-01-28T04:48:29;11.00;7.00;2.25
65383;PMS5003;51986;52.788;41.368;2023-01-28T04:51:34;12.00;8.50;3.00
65383;PMS5003;51986;52.788;41.368;2023-01-28T04:54:24;11.25;8.00;2.25
65383;PMS5003;51986;52.788;41.368;2023-01-28T04:56:54;10.00;7.50;3.00
65383;PMS5003;51986;52.788;41.368;2023-01-28T04:59:22;10.75;7.00;2.00
65383;PMS5003;51986;52.788;41.368;2023-01-28T05:01:50;12.00;7.25;3.00
65383;PMS5003;51986;52.788;41.368;2023-01-28T05:04:18;10.00;6.75;2.50
65383;PMS5003;51986;52.788;41.368;2023-01-28T05:06:45;10.00;8.00;3.00
65383;PMS5003;51986;52.788;41.368;2023-01-28T05:09:15;10.00;8.00;3.00
65383;PMS5003;51986;52.788;41.368;2023-01-28T05:11:42;6.25;6.00;2.25
65383;PMS5003;51986;52.788;41.368;2023-01-28T05:14:10;10.00;10.00;4.00
65383;PMS5003;51986;52.788;41.368;2023-01-28T05:16:48;10.00;10.00;4.25
65383;PMS5003;51986;52.788;41.368;2023-01-28T05:19:17;9.50;7.75;2.00
65383;PMS5003;51986;52.788;41.368;2023-01-28T05:21:45;7.00;6.50;2.50
65383;PMS5003;51986;52.788;41.368;2023-01-28T05:24:30;8.50;8.00;4.50
65383;PMS5003;51986;52.788;41.368;2023-01-28T05:26:57;12.00;11.00;3.25
65383;PMS5003;51986;52.788;41.368;2023-01-28T05:29:25;10.00;10.00;3.00
65383;PMS5003;51986;52.788;41.368;2023-01-28T05:31:52;12.00;10.00;4.00
65383;PMS5003;51986;52.788;41.368;2023-01-28T05:34:19;12.75;11.75;3.50
65383;PMS5003;51986;52.788;41.368;2023-01-28T05:36:46;10.00;10.00;3.00
65383;PMS5003;51986;52.788;41.368;2023-01-28T05:39:33;6.50;6.00;2.00
65383;PMS5003;51986;52.788;41.368;2023-01-28T05:42:00;7.00;5.50;3.00
65383;PMS5003;51986;52.788;41.368;2023-01-28T05:44:28;10.50;7.50;4.00
65383;PMS5003;51986;52.788;41.368;2023-01-28T05:47:14;8.75;7.50;1.00
65383;PMS5003;51986;52.788;41.368;2023-01-28T05:49:47;9.00;6.50;2.00
65383;PMS5003;51986;52.788;41.368;2023-01-28T05:52:32;8.00;5.00;2.00
65383;PMS5003;51986;52.788;41.368;2023-01-28T05:55:00;10.00;5.00;2.00
65383;PMS5003;51986;52.788;41.368;2023-01-28T05:57:27;13.00;9.00;3.00
65383;PMS5003;51986;52.788;41.368;2023-01-28T05:59:54;12.00;7.00;3.00
65383;PMS5003;51986;52.788;41.368;2023-01-28T06:02:21;11.00;7.25;4.00
65383;PMS5003;51986;52.788;41.368;2023-01-28T06:04:52;11.00;9.00;4.00
65383;PMS5003;51986;52.788;41.368;2023-01-28T06:07:19;10.00;8.00;2.25
65383;PMS5003;51986;52.788;41.368;2023-01-28T06:09:46;10.00;8.00;2.75
65383;PMS5003;51986;52.788;41.368;2023-01-28T06:12:17;12.75;10.00;4.00
65383;PMS5003;51986;52.788;41.368;2023-01-28T06:15:02;10.00;8.00;3.00
65383;PMS5003;51986;52.788;41.368;2023-01-28T06:17:52;11.00;8.00;3.00
65383;PMS5003;51986;52.788;41.368;2023-01-28T06:20:25;12.00;8.00;2.50
65383;PMS5003;51986;52.788;41.368;2023-01-28T06:22:55;12.00;8.75;3.25
65383;PMS5003;51986;52.788;41.368;2023-01-28T06:25:22;12.75;10.50;5.00
65383;PMS5003;51986;52.788;41.368;2023-01-28T06:27:49;13.50;10.25;5.00
65383;PMS5003;51986;52.788;41.368;2023-01-28T06:30:17;15.75;12.00;5.00
65383;PMS5003;51986;52.788;41.368;2023-01-28T06:32:45;14.00;10.00;3.25
65383;PMS5003;51986;52.788;41.368;2023-01-28T06:35:12;10.00;10.00;3.00
65383;PMS5003;51986;52.788;41.368;2023-01-28T06:37:39;12.25;11.00;5.00
65383;PMS5003;51986;52.788;41.368;2023-01-28T06:40:06;13.75;11.00;4.75
65383;PMS5003;51986;52.788;41.368;2023-01-28T06:42:34;14.00;10.00;3.50
65383;PMS5003;51986;52.788;41.368;2023-01-28T06:45:01;13.75;10.00;3.00
65383;PMS5003;51986;52.788;41.368;2023-01-28T06:47:28;12.00;10.00;3.00
65383;PMS5003;51986;52.788;41.368;2023-01-28T06:49:55;11.75;9.00;3.00
65383;PMS5003;51986;52.788;41.368;2023-01-28T06:52:22;10.00;7.25;3.00
65383;PMS5003;51986;52.788;41.368;2023-01-28T06:54:49;11.00;7.00;3.00
65383;PMS5003;51986;52.788;41.368;2023-01-28T06:57:16;9.00;6.50;3.25
65383;PMS5003;51986;52.788;41.368;2023-01-28T06:59:43;10.00;7.00;3.00
65383;PMS5003;51986;52.788;41.368;2023-01-28T07:02:10;10.00;7.75;3.00
65383;PMS5003;51986;52.788;41.368;2023-01-28T07:04:37;11.00;9.00;3.75
65383;PMS5003;51986;52.788;41.368;2023-01-28T07:07:04;13.00;9.25;3.00
65383;PMS5003;51986;52.788;41.368;2023-01-28T07:09:31;12.00;8.00;3.00
65383;PMS5003;51986;52.788;41.368;2023-01-28T07:11:58;11.00;7.75;3.00
65383;PMS5003;51986;52.788;41.368;2023-01-28T07:14:25;12.00;8.00;3.00
65383;PMS5003;51986;52.788;41.368;2023-01-28T07:16:52;9.00;7.00;1.75
65383;PMS5003;51986;52.788;41.368;2023-01-28T07:19:18;7.00;6.00;3.00
65383;PMS5003;51986;52.788;41.368;2023-01-28T07:21:46;10.00;9.00;3.00
65383;PMS5003;51986;52.788;41.368;2023-01-28T07:24:12;11.00;9.00;3.00
65383;PMS5003;51986;52.788;41.368;2023-01-28T07:26:40;10.00;8.00;3.00
65383;PMS5003;51986;52.788;41.368;2023-01-28T07:29:07;11.00;9.50;3.00
65383;PMS5003;51986;52.788;41.368;2023-01-28T07:31:34;12.00;10.00;4.00
65383;PMS5003;51986;52.788;41.368;2023-01-28T07:34:01;15.50;12.00;5.00
65383;PMS5003;51986;52.788;41.368;2023-01-28T07:36:28;16.00;12.50;5.00
65383;PMS5003;51986;52.788;41.368;2023-01-28T07:38:55;16.00;12.25;3.25
65383;PMS5003;51986;52.788;41.368;2023-01-28T07:41:22;14.00;11.50;4.00
65383;PMS5003;51986;52.788;41.368;2023-01-28T07:43:49;12.00;10.00;5.00
65383;PMS5003;51986;52.788;41.368;2023-01-28T07:46:16;12.00;11.00;4.00
65383;PMS5003;51986;52.788;41.368;2023-01-28T07:48:42;12.50;10.75;5.00
65383;PMS5003;51986;52.788;41.368;2023-01-28T07:51:10;12.00;11.75;4.25
65383;PMS5003;51986;52.788;41.368;2023-01-28T07:53:37;14.25;12.50;5.00
65383;PMS5003;51986;52.788;41.368;2023-01-28T07:56:04;14.00;11.75;5.00
65383;PMS5003;51986;52.788;41.368;2023-01-28T07:58:31;12.75;9.00;3.00
65383;PMS5003;51986;52.788;41.368;2023-01-28T08:00:59;12.00;9.00;3.00
65383;PMS5003;51986;52.788;41.368;2023-01-28T08:03:26;13.00;12.75;5.00
65383;PMS5003;51986;52.788;41.368;2023-01-28T08:05:54;15.50;13.00;5.00
65383;PMS5003;51986;52.788;41.368;2023-01-28T08:08:22;12.25;9.50;3.50
65383;PMS5003;51986;52.788;41.368;2023-01-28T08:10:50;13.00;11.75;4.25
65383;PMS5003;51986;52.788;41.368;2023-01-28T08:13:18;14.00;11.75;5.00
65383;PMS5003;51986;52.788;41.368;2023-01-28T08:15:45;13.00;12.00;4.00
65383;PMS5003;51986;52.788;41.368;2023-01-28T08:18:13;15.00;11.50;4.75
65383;PMS5003;51986;52.788;41.368;2023-01-28T08:20:41;14.25;11.75;3.25
65383;PMS5003;51986;52.788;41.368;2023-01-28T08:23:17;15.00;12.00;4.50
65383;PMS5003;51986;52.788;41.368;2023-01-28T08:25:46;14.25;12.50;5.25
65383;PMS5003;51986;52.788;41.368;2023-01-28T08:28:13;14.00;13.00;5.00
65383;PMS5003;51986;52.788;41.368;2023-01-28T08:30:42;14.00;13.00;4.00
65383;PMS5003;51986;52.788;41.368;2023-01-28T08:33:10;15.00;12.00;5.00
65383;PMS5003;51986;52.788;41.368;2023-01-28T08:35:38;14.00;12.75;5.00
65383;PMS5003;51986;52.788;41.368;2023-01-28T08:38:05;16.00;13.00;5.00
65383;PMS5003;51986;52.788;41.368;2023-01-28T08:40:34;15.00;13.00;4.00
65383;PMS5003;51986;52.788;41.368;2023-01-28T08:43:02;13.00;10.75;3.25
65383;PMS5003;51986;52.788;41.368;2023-01-28T08:45:30;14.50;11.00;5.00
65383;PMS5003;51986;52.788;41.368;2023-01-28T08:47:58;14.00;12.00;5.00
65383;PMS5003;51986;52.788;41.368;2023-01-28T08:50:35;14.00;13.00;5.00
65383;PMS5003;51986;52.788;41.368;2023-01-28T08:53:05;15.00;13.00;6.00
65383;PMS5003;51986;52.788;41.368;2023-01-28T08:55:34;20.00;16.75;8.50
65383;PMS5003;51986;52.788;41.368;2023-01-28T08:58:02;20.00;15.75;9.00
65383;PMS5003;51986;52.788;41.368;2023-01-28T09:00:30;18.00;13.75;6.50
65383;PMS5003;51986;52.788;41.368;2023-01-28T09:02:58;14.00;12.00;5.00
65383;PMS5003;51986;52.788;41.368;2023-01-28T09:05:25;15.00;13.00;5.00
65383;PMS5003;51986;52.788;41.368;2023-01-28T09:07:52;16.00;13.00;5.00
65383;PMS5003;51986;52.788;41.368;2023-01-28T09:10:19;13.50;13.00;4.00
65383;PMS5003;51986;52.788;41.368;2023-01-28T09:12:46;14.50;12.00;4.75
65383;PMS5003;51986;52.788;41.368;2023-01-28T09:15:13;15.50;13.00;5.00
65383;PMS5003;51986;52.788;41.368;2023-01-28T09:17:40;11.00;11.00;3.00
65383;PMS5003;51986;52.788;41.368;2023-01-28T09:20:07;11.00;10.00;3.00
65383;PMS5003;51986;52.788;41.368;2023-01-28T09:22:34;9.00;6.00;3.00
65383;PMS5003;51986;52.788;41.368;2023-01-28T09:25:01;7.75;5.00;1.50
65383;PMS5003;51986;52.788;41.368;2023-01-28T09:27:28;8.00;7.00;3.00
65383;PMS5003;51986;52.788;41.368;2023-01-28T09:29:55;10.00;9.00;3.00
65383;PMS5003;51986;52.788;41.368;2023-01-28T09:32:22;13.00;10.00;3.00
65383;PMS5003;51986;52.788;41.368;2023-01-28T09:34:49;12.00;11.00;4.00
65383;PMS5003;51986;52.788;41.368;2023-01-28T09:37:16;10.25;7.75;3.00
65383;PMS5003;51986;52.788;41.368;2023-01-28T09:39:43;8.25;7.00;3.00
65383;PMS5003;51986;52.788;41.368;2023-01-28T09:42:27;7.00;6.00;1.00
65383;PMS5003;51986;52.788;41.368;2023-01-28T09:45:21;12.00;9.00;3.00
65383;PMS5003;51986;52.788;41.368;2023-01-28T09:47:57;12.50;8.00;3.00
65383;PMS5003;51986;52.788;41.368;2023-01-28T09:50:34;13.00;9.00;4.75
65383;PMS5003;51986;52.788;41.368;2023-01-28T09:53:21;11.25;7.25;4.00
65383;PMS5003;51986;52.788;41.368;2023-01-28T09:56:05;10.00;8.00;4.00
65383;PMS5003;51986;52.788;41.368;2023-01-28T09:58:40;9.00;7.00;4.50
65383;PMS5003;51986;52.788;41.368;2023-01-28T10:03:56;11.00;8.75;2.00
65383;PMS5003;51986;52.788;41.368;2023-01-28T10:06:49;6.50;5.50;3.00
65383;PMS5003;51986;52.788;41.368;2023-01-28T10:12:42;9.00;6.00;3.00
65383;PMS5003;51986;52.788;41.368;2023-01-28T10:17:53;11.00;9.00;3.00
65383;PMS5003;51986;52.788;41.368;2023-01-28T10:20:49;9.00;7.00;1.00
65383;PMS5003;51986;52.788;41.368;2023-01-28T10:23:30;9.00;6.00;3.00
65383;PMS5003;51986;52.788;41.368;2023-01-28T10:26:06;7.50;5.00;1.00
65383;PMS5003;51986;52.788;41.368;2023-01-28T10:28:44;6.00;4.00;1.00
65383;PMS5003;51986;52.788;41.368;2023-01-28T10:31:16;5.00;5.00;1.50
65383;PMS5003;51986;52.788;41.368;2023-01-28T10:33:43;8.00;7.00;2.25
65383;PMS5003;51986;52.788;41.368;2023-01-28T10:36:10;6.50;5.00;1.00
65383;PMS5003;51986;52.788;41.368;2023-01-28T10:38:37;5.00;5.00;0.00
65383;PMS5003;51986;52.788;41.368;2023-01-28T10:41:05;5.00;5.00;1.00
65383;PMS5003;51986;52.788;41.368;2023-01-28T10:43:35;7.25;5.00;1.00
65383;PMS5003;51986;52.788;41.368;2023-01-28T10:49:04;5.00;3.00;1.00
65383;PMS5003;51986;52.788;41.368;2023-01-28T10:51:36;3.00;3.00;1.00
65383;PMS5003;51986;52.788;41.368;2023-01-28T10:56:46;8.75;7.00;2.50
65383;PMS5003;51986;52.788;41.368;2023-01-28T11:01:49;3.00;3.00;1.00
65383;PMS5003;51986;52.788;41.368;2023-01-28T11:07:00;5.00;4.00;2.00
65383;PMS5003;51986;52.788;41.368;2023-01-28T11:09:31;6.00;4.75;2.50
65383;PMS5003;51986;52.788;41.368;2023-01-28T11:14:51;4.00;3.00;1.00
65383;PMS5003;51986;52.788;41.368;2023-01-28T11:17:21;3.75;3.00;1.00
65383;PMS5003;51986;52.788;41.368;2023-01-28T11:19:51;4.75;3.25;1.00
65383;PMS5003;51986;52.788;41.368;2023-01-28T11:24:46;6.50;5.00;3.00
65383;PMS5003;51986;52.788;41.368;2023-01-28T11:27:16;6.75;5.00;2.00
65383;PMS5003;51986;52.788;41.368;2023-01-28T11:29:49;8.00;7.00;3.00
65383;PMS5003;51986;52.788;41.368;2023-01-28T11:32:20;9.00;5.75;3.25
65383;PMS5003;51986;52.788;41.368;2023-01-28T11:34:52;10.00;8.00;3.00
65383;PMS5003;51986;52.788;41.368;2023-01-28T11:37:21;10.00;7.00;3.00
65383;PMS5003;51986;52.788;41.368;2023-01-28T11:42:48;5.00;4.50;1.00
65383;PMS5003;51986;52.788;41.368;2023-01-28T11:48:27;5.00;3.00;1.00
65383;PMS5003;51986;52.788;41.368;2023-01-28T11:53:52;8.75;6.50;0.50
65383;PMS5003;51986;52.788;41.368;2023-01-28T12:08:07;12.00;8.75;3.50
65383;PMS5003;51986;52.788;41.368;2023-01-28T12:10:37;12.25;8.00;3.00
65383;PMS5003;51986;52.788;41.368;2023-01-28T12:27:35;9.00;6.75;3.25
65383;PMS5003;51986;52.788;41.368;2023-01-28T12:30:23;14.00;11.00;4.00
65383;PMS5003;51986;52.788;41.368;2023-01-28T12:35:52;11.00;7.00;3.00
65383;PMS5003;51986;52.788;41.368;2023-01-28T12:41:19;10.00;5.00;2.00
65383;PMS5003;51986;52.788;41.368;2023-01-28T12:43:53;10.00;6.00;3.25
65383;PMS5003;51986;52.788;41.368;2023-01-28T12:46:46;10.00;7.00;3.50
65383;PMS5003;51986;52.788;41.368;2023-01-28T12:49:20;11.00;7.00;3.00
65383;PMS5003;51986;52.788;41.368;2023-01-28T12:57:39;11.50;9.00;3.00
65383;PMS5003;51986;52.788;41.368;2023-01-28T13:05:58;9.75;7.75;2.50
65383;PMS5003;51986;52.788;41.368;2023-01-28T13:08:28;9.00;6.50;3.00
65383;PMS5003;51986;52.788;41.368;2023-01-28T13:10:56;7.75;5.50;2.25
65383;PMS5003;51986;52.788;41.368;2023-01-28T13:13:31;8.25;5.00;1.00
65383;PMS5003;51986;52.788;41.368;2023-01-28T13:16:04;9.00;6.00;2.00
65383;PMS5003;51986;52.788;41.368;2023-01-28T13:18:43;10.00;8.00;3.00
65383;PMS5003;51986;52.788;41.368;2023-01-28T13:24:03;10.25;7.00;2.00
65383;PMS5003;51986;52.788;41.368;2023-01-28T13:26:36;10.00;5.00;2.00
65383;PMS5003;51986;52.788;41.368;2023-01-28T13:31:52;10.00;7.00;3.00
65383;PMS5003;51986;52.788;41.368;2023-01-28T13:34:28;8.00;5.75;2.75
65383;PMS5003;51986;52.788;41.368;2023-01-28T13:37:06;8.75;5.50;1.50
65383;PMS5003;51986;52.788;41.368;2023-01-28T13:39:45;8.25;5.50;2.00
65383;PMS5003;51986;52.788;41.368;2023-01-28T13:42:19;4.00;3.25;1.00
65383;PMS5003;51986;52.788;41.368;2023-01-28T13:44:48;4.50;3.50;1.00
65383;PMS5003;51986;52.788;41.368;2023-01-28T13:47:30;5.00;3.75;1.00
65383;PMS5003;51986;52.788;41.368;2023-01-28T13:50:33;3.50;3.00;1.00
65383;PMS5003;51986;52.788;41.368;2023-01-28T13:53:29;4.50;3.50;0.50
65383;PMS5003;51986;52.788;41.368;2023-01-28T13:56:03;5.50;5.00;2.00
65383;PMS5003;51986;52.788;41.368;2023-01-28T14:15:07;5.00;4.00;1.00
65383;PMS5003;51986;52.788;41.368;2023-01-28T14:20:16;6.00;5.00;2.00
65383;PMS5003;51986;52.788;41.368;2023-01-28T14:22:45;5.00;4.00;1.00
65383;PMS5003;51986;52.788;41.368;2023-01-28T14:25:14;4.25;4.00;1.00
65383;PMS5003;51986;52.788;41.368;2023-01-28T14:27:49;5.00;5.00;2.25
65383;PMS5003;51986;52.788;41.368;2023-01-28T14:30:31;4.75;3.00;1.75
65383;PMS5003;51986;52.788;41.368;2023-01-28T14:33:22;5.25;5.00;2.00
65383;PMS5003;51986;52.788;41.368;2023-01-28T14:35:49;5.00;3.75;2.00
65383;PMS5003;51986;52.788;41.368;2023-01-28T14:38:18;5.00;4.00;1.75
65383;PMS5003;51986;52.788;41.368;2023-01-28T14:40:50;5.50;5.00;1.00
65383;PMS5003;51986;52.788;41.368;2023-01-28T14:43:21;3.00;3.00;1.00
65383;PMS5003;51986;52.788;41.368;2023-01-28T14:59:50;12.00;10.00;3.00
65383;PMS5003;51986;52.788;41.368;2023-01-28T15:02:16;12.00;9.00;3.00
65383;PMS5003;51986;52.788;41.368;2023-01-28T15:04:45;16.00;12.75;3.00
65383;PMS5003;51986;52.788;41.368;2023-01-28T15:07:16;15.50;11.75;5.00
65383;PMS5003;51986;52.788;41.368;2023-01-28T15:10:00;16.00;12.00;4.50
65383;PMS5003;51986;52.788;41.368;2023-01-28T15:12:29;14.00;10.00;4.00
65383;PMS5003;51986;52.788;41.368;2023-01-28T15:15:08;11.00;9.00;3.00
65383;PMS5003;51986;52.788;41.368;2023-01-28T15:17:55;13.50;11.00;4.00
65383;PMS5003;51986;52.788;41.368;2023-01-28T15:20:28;16.00;11.50;3.00
65383;PMS5003;51986;52.788;41.368;2023-01-28T15:22:55;16.25;13.50;5.00
65383;PMS5003;51986;52.788;41.368;2023-01-28T15:25:23;14.75;12.25;4.75
65383;PMS5003;51986;52.788;41.368;2023-01-28T15:27:54;9.75;7.75;3.00
65383;PMS5003;51986;52.788;41.368;2023-01-28T15:30:28;10.50;9.25;4.25
65383;PMS5003;51986;52.788;41.368;2023-01-28T15:33:04;9.75;7.00;2.00
65383;PMS5003;51986;52.788;41.368;2023-01-28T15:35:45;11.00;6.00;1.75
65383;PMS5003;51986;52.788;41.368;2023-01-28T15:38:13;9.00;5.75;2.25
65383;PMS5003;51986;52.788;41.368;2023-01-28T15:40:44;8.50;5.00;1.00
65383;PMS5003;51986;52.788;41.368;2023-01-28T15:43:18;7.00;4.00;1.00
65383;PMS5003;51986;52.788;41.368;2023-01-28T15:46:00;6.25;4.00;1.00
65383;PMS5003;51986;52.788;41.368;2023-01-28T15:48:29;5.25;4.25;2.00
65383;PMS5003;51986;52.788;41.368;2023-01-28T15:51:01;9.00;7.00;2.00
65383;PMS5003;51986;52.788;41.368;2023-01-28T15:53:33;3.25;3.00;1.00
65383;PMS5003;51986;52.788;41.368;2023-01-28T15:56:12;7.75;5.00;0.00
65383;PMS5003;51986;52.788;41.368;2023-01-28T15:58:40;5.00;3.00;0.25
65383;PMS5003;51986;52.788;41.368;2023-01-28T16:03:36;3.00;3.00;1.00
65383;PMS5003;51986;52.788;41.368;2023-01-28T16:06:15;5.00;3.50;1.00
65383;PMS5003;51986;52.788;41.368;2023-01-28T16:08:46;4.00;3.00;0.00
65383;PMS5003;51986;52.788;41.368;2023-01-28T16:11:25;3.00;3.00;0.00
65383;PMS5003;51986;52.788;41.368;2023-01-28T16:13:53;3.00;3.00;0.00
65383;PMS5003;51986;52.788;41.368;2023-01-28T16:16:25;3.00;3.00;0.00
65383;PMS5003;51986;52.788;41.368;2023-01-28T16:18:55;3.00;3.00;0.00
65383;PMS5003;51986;52.788;41.368;2023-01-28T16:21:26;2.00;1.00;0.00
65383;PMS5003;51986;52.788;41.368;2023-01-28T16:24:03;1.00;1.00;0.00
65383;PMS5003;51986;52.788;41.368;2023-01-28T16:26:33;2.00;1.00;0.00
65383;PMS5003;51986;52.788;41.368;2023-01-28T16:29:14;2.50;2.00;0.00
65383;PMS5003;51986;52.788;41.368;2023-01-28T16:31:41;2.00;2.00;0.00
65383;PMS5003;51986;52.788;41.368;2023-01-28T16:34:11;3.00;2.00;0.00
65383;PMS5003;51986;52.788;41.368;2023-01-28T16:36:38;3.00;2.50;0.00
65383;PMS5003;51986;52.788;41.368;2023-01-28T16:39:05;2.00;1.00;0.00
65383;PMS5003;51986;52.788;41.368;2023-01-28T16:41:33;4.00;3.00;0.00
65383;PMS5003;51986;52.788;41.368;2023-01-28T16:44:05;5.00;4.00;1.00